Rush City, MN

10:56 PM CDT on April 28, 2017 (GMT -0500)
Rush City Regional

Weather History for KROS - March, 2013

Change the Weather History Date:

Tuesday, March 19, 2013

  Actual Average (KCBG) Record (KCBG)
Temperature  
Mean Temperature 14 °F -  
Max Temperature 23 °F 39 °F 77 °F (2012)
Min Temperature 6 °F 23 °F -3 °F (1965)
Degree Days  
Heating Degree Days 50    
Moisture  
Dew Point 1 °F    
Average Humidity 59    
Maximum Humidity 77    
Minimum Humidity 45    
Precipitation  
Precipitation 0.00 in - - ()
Sea Level Pressure  
Sea Level Pressure 29.96 in    
Wind  
Wind Speed 13 mph (WNW)    
Max Wind Speed 17 mph    
Max Gust Speed 24 mph    
Visibility 10 miles    
Events      
Averages and records for this station are not official NWS values.
T = Trace of Precipitation, MM = Missing Value Source: NWS Daily Summary

Daily Weather History Graph

Daily Weather History Graph

Search for Another Location

Airport or City:

Trip Planner

Search our weather history database for the weather conditions in past years. The results will help you decide how hot, cold, wet, or windy it might be!

Date:

Astronomy

Mar. 19, 2013 Rise Set
Actual Time 7:16 AM CDT 7:23 PM CDT
Civil Twilight 6:46 AM CDT 7:53 PM CDT
Nautical Twilight 6:11 AM CDT 8:27 PM CDT
Astronomical Twilight 5:36 AM CDT 9:03 PM CDT
Moon 11:50 AM CDT (3/19) 2:27 AM CDT (3/19)
Length of Visible Light 13h 06m
Length of Day
12h 07m
Waxing Crescent, 50% of the Moon is Illuminated
Mar 19
Waxing Crescent
Mar 19
First Quarter
Mar 27
Full
Apr 2
Last Quarter
Apr 10
New

Hourly Weather History & Observations

Time (CDT) Temp. Windchill Dew Point Humidity Pressure Visibility Wind Dir Wind Speed Gust Speed Precip Events Conditions
12:15 AM 11.3 °F -3.6 °F 4.1 °F 73% 29.73 in 10.0 mi WNW 12.7 mph 21.9 mph N/A   Overcast
12:35 AM 10.9 °F -4.1 °F 3.7 °F 73% 29.74 in 10.0 mi WNW 12.7 mph 23.0 mph N/A   Overcast
12:55 AM 10.4 °F -6.0 °F 3.2 °F 73% 29.74 in 10.0 mi West 15.0 mph 21.9 mph N/A   Mostly Cloudy
1:15 AM 10.0 °F -5.9 °F 3.2 °F 74% 29.75 in 10.0 mi WNW 13.8 mph 20.7 mph N/A   Scattered Clouds
1:35 AM 9.5 °F -4.4 °F 2.8 °F 74% 29.76 in 10.0 mi West 10.4 mph 18.4 mph N/A   Scattered Clouds
1:55 AM 9.3 °F -6.8 °F 2.5 °F 74% 29.76 in 10.0 mi WNW 13.8 mph - N/A   Clear
2:15 AM 9.0 °F -7.3 °F 2.3 °F 74% 29.77 in 10.0 mi WNW 13.8 mph 19.6 mph N/A   Scattered Clouds
2:35 AM 8.6 °F -7.7 °F 2.3 °F 76% 29.78 in 10.0 mi WNW 13.8 mph 18.4 mph N/A   Scattered Clouds
2:55 AM 8.6 °F -7.7 °F 2.3 °F 76% 29.78 in 10.0 mi WNW 13.8 mph 18.4 mph N/A   Clear
3:15 AM 8.6 °F -8.3 °F 2.3 °F 76% 29.79 in 10.0 mi West 15.0 mph 19.6 mph N/A   Clear
3:35 AM 8.6 °F -7.7 °F 2.3 °F 76% 29.79 in 10.0 mi WNW 13.8 mph 18.4 mph N/A   Clear
3:55 AM 8.4 °F -7.3 °F 2.1 °F 76% 29.80 in 10.0 mi WNW 12.7 mph 19.6 mph N/A   Clear
4:15 AM 8.2 °F -8.2 °F 2.1 °F 76% 29.80 in 10.0 mi WNW 13.8 mph 19.6 mph N/A   Scattered Clouds
4:35 AM 8.2 °F -8.2 °F 2.1 °F 76% 29.80 in 10.0 mi WNW 13.8 mph 19.6 mph N/A   Scattered Clouds
4:56 AM 7.7 °F -7.4 °F 1.6 °F 76% 29.81 in 10.0 mi WNW 11.5 mph 18.4 mph N/A   Scattered Clouds
5:15 AM 7.2 °F -9.6 °F 1.2 °F 77% 29.82 in 10.0 mi WNW 13.8 mph 19.6 mph N/A   Scattered Clouds
5:35 AM 7.3 °F -8.6 °F 1.2 °F 76% 29.83 in 10.0 mi West 12.7 mph 20.7 mph N/A   Mostly Cloudy
5:56 AM 7.0 °F -9.1 °F 0.7 °F 75% 29.83 in 10.0 mi WNW 12.7 mph 19.6 mph N/A   Mostly Cloudy
6:15 AM 6.8 °F -7.8 °F 0.5 °F 75% 29.85 in 10.0 mi WNW 10.4 mph 19.6 mph N/A   Mostly Cloudy
6:35 AM 6.8 °F -9.3 °F 0.3 °F 75% 29.86 in 10.0 mi WNW 12.7 mph - N/A   Scattered Clouds
6:56 AM 6.8 °F -8.6 °F 0.1 °F 74% 29.87 in 10.0 mi WNW 11.5 mph 18.4 mph N/A   Scattered Clouds
7:15 AM 6.3 °F -7.5 °F -0.4 °F 74% 29.89 in 10.0 mi West 9.2 mph - N/A   Mostly Cloudy
7:35 AM 6.6 °F -8.8 °F -0.4 °F 73% 29.89 in 10.0 mi West 11.5 mph 17.3 mph N/A   Scattered Clouds
7:56 AM 7.3 °F -6.2 °F -0.4 °F 71% 29.91 in 10.0 mi WNW 9.2 mph - N/A   Scattered Clouds
8:15 AM 6.6 °F -6.1 °F -1.3 °F 70% 29.92 in 10.0 mi West 8.1 mph - N/A   Clear
8:35 AM 7.3 °F -6.2 °F -0.8 °F 69% 29.93 in 10.0 mi West 9.2 mph - N/A   Clear
8:56 AM 8.6 °F -3.7 °F -0.4 °F 67% 29.94 in 10.0 mi West 8.1 mph - N/A   Scattered Clouds
9:15 AM 9.9 °F -2.2 °F -0.0 °F 64% 29.95 in 10.0 mi West 8.1 mph - N/A   Scattered Clouds
9:35 AM 11.3 °F -4.3 °F 0.5 °F 62% 29.96 in 10.0 mi WNW 13.8 mph 20.7 mph N/A   Clear
9:56 AM 12.4 °F -3.5 °F 0.9 °F 60% 29.96 in 10.0 mi WNW 15.0 mph 18.4 mph N/A   Clear
10:15 AM 13.3 °F -1.8 °F 1.2 °F 59% 29.96 in 10.0 mi WNW 13.8 mph 20.7 mph N/A   Clear
10:35 AM 14.4 °F -1.0 °F 1.4 °F 56% 29.97 in 10.0 mi WNW 15.0 mph 19.6 mph N/A   Clear
10:55 AM 15.4 °F -0.6 °F 1.6 °F 54% 29.97 in 10.0 mi WNW 17.3 mph 21.9 mph N/A   Clear
11:15 AM 17.1 °F 6.6 °F 2.5 °F 53% 29.98 in 10.0 mi West 8.1 mph - N/A   Clear
11:35 AM 17.8 °F 8.5 °F 2.7 °F 52% 29.98 in 10.0 mi West 6.9 mph 20.7 mph N/A   Clear
11:56 AM 17.8 °F 4.0 °F 2.5 °F 51% 29.99 in 10.0 mi West 13.8 mph - N/A   Clear
12:15 PM 18.7 °F 7.0 °F 3.0 °F 51% 29.99 in 10.0 mi West 10.4 mph 17.3 mph N/A   Clear
12:35 PM 18.9 °F 4.8 °F 3.2 °F 51% 29.99 in 10.0 mi West 15.0 mph 19.6 mph N/A   Clear
12:56 PM 19.4 °F 6.6 °F 3.2 °F 49% 29.99 in 10.0 mi West 12.7 mph - N/A   Clear
1:15 PM 20.1 °F 5.4 °F 3.4 °F 48% 30.00 in 10.0 mi West 17.3 mph 20.7 mph N/A   Clear
1:35 PM 20.8 °F 7.9 °F 3.9 °F 48% 30.00 in 10.0 mi West 13.8 mph - N/A   Clear
1:56 PM 21.6 °F 8.8 °F 4.5 °F 48% 30.00 in 10.0 mi West 13.8 mph - N/A   Clear
2:15 PM 22.1 °F 8.5 °F 4.5 °F 47% 30.00 in 10.0 mi West 16.1 mph 20.7 mph N/A   Clear
2:35 PM 22.8 °F 10.9 °F 4.8 °F 46% 30.00 in 10.0 mi West 12.7 mph 18.4 mph N/A   Clear
2:55 PM 22.6 °F 9.6 °F 4.8 °F 46% 30.00 in 10.0 mi West 15.0 mph 19.6 mph N/A   Clear
3:15 PM 23.0 °F 10.6 °F 5.4 °F 47% 30.01 in 10.0 mi West 13.8 mph 19.6 mph N/A   Clear
3:36 PM 23.5 °F 10.8 °F 5.7 °F 47% 30.01 in 10.0 mi West 15.0 mph 21.9 mph N/A   Clear
3:55 PM 23.0 °F 10.6 °F 5.2 °F 47% 30.01 in 10.0 mi West 13.8 mph 24.2 mph N/A   Clear
4:15 PM 23.2 °F 9.8 °F 4.8 °F 45% 30.01 in 10.0 mi West 16.1 mph 19.6 mph N/A   Mostly Cloudy
4:36 PM 22.8 °F 9.9 °F 5.2 °F 47% 30.01 in 10.0 mi West 15.0 mph - N/A   Overcast
4:55 PM 23.0 °F 10.6 °F 5.4 °F 47% 30.02 in 10.0 mi West 13.8 mph 20.7 mph N/A   Overcast
5:15 PM 22.8 °F 10.4 °F 5.2 °F 47% 30.03 in 10.0 mi West 13.8 mph - N/A   Overcast
5:36 PM 21.4 °F 8.5 °F 5.2 °F 50% 30.04 in 10.0 mi West 13.8 mph 18.4 mph N/A   Scattered Clouds
5:55 PM 22.1 °F 8.5 °F 4.8 °F 48% 30.04 in 10.0 mi West 16.1 mph 19.6 mph N/A   Clear
6:15 PM 21.2 °F 10.1 °F 4.8 °F 49% 30.05 in 10.0 mi West 10.4 mph - N/A   Clear
6:36 PM 19.6 °F 5.7 °F 3.9 °F 51% 30.06 in 10.0 mi West 15.0 mph 20.7 mph N/A   Clear
6:55 PM 18.5 °F 6.1 °F 3.6 °F 52% 30.07 in 10.0 mi West 11.5 mph 18.4 mph N/A   Clear
7:15 PM 17.2 °F 4.5 °F 3.0 °F 54% 30.07 in 10.0 mi West 11.5 mph 16.1 mph N/A   Clear
7:35 PM 16.0 °F 2.3 °F 2.3 °F 55% 30.08 in 10.0 mi West 12.7 mph - N/A   Clear
7:55 PM 15.3 °F 2.0 °F 1.0 °F 53% 30.09 in 10.0 mi West 11.5 mph - N/A   Clear
8:15 PM 14.2 °F 0.7 °F 0.1 °F 54% 30.10 in 10.0 mi West 11.5 mph 17.3 mph N/A   Clear
8:35 PM 14.7 °F -0.5 °F -2.9 °F 46% 30.11 in 10.0 mi WNW 15.0 mph 18.4 mph N/A   Clear
8:55 PM 12.6 °F -1.4 °F -1.8 °F 53% 30.11 in 10.0 mi West 11.5 mph - N/A   Clear
9:15 PM 12.2 °F -3.1 °F -4.0 °F 48% 30.11 in 10.0 mi West 13.8 mph 18.4 mph N/A   Clear
9:35 PM 12.0 °F -4.0 °F -4.0 °F 49% 30.11 in 10.0 mi WNW 15.0 mph 24.2 mph N/A   Clear
9:55 PM 12.0 °F -3.4 °F -4.4 °F 48% 30.11 in 10.0 mi WNW 13.8 mph 21.9 mph N/A   Scattered Clouds
10:15 PM 11.3 °F -2.9 °F -4.9 °F 48% 30.12 in 10.0 mi WNW 11.5 mph 18.4 mph N/A   Scattered Clouds
10:35 PM 10.8 °F -3.6 °F -5.1 °F 49% 30.11 in 10.0 mi WNW 11.5 mph - N/A   Scattered Clouds
10:55 PM 10.2 °F -3.5 °F -5.8 °F 49% 30.12 in 10.0 mi WNW 10.4 mph 18.4 mph N/A   Scattered Clouds
11:15 PM 10.0 °F -5.9 °F -5.8 °F 49% 30.13 in 10.0 mi NW 13.8 mph 21.9 mph N/A   Scattered Clouds
11:35 PM 9.7 °F -7.5 °F -6.2 °F 49% 30.13 in 10.0 mi WNW 16.1 mph 21.9 mph N/A   Mostly Cloudy
11:55 PM 9.1 °F -5.6 °F -6.3 °F 50% 30.14 in 10.0 mi NW 11.5 mph 17.3 mph N/A   Scattered Clouds